createdAt,value
2017-10-17T00:01:08.358Z,99.90
2017-10-17T00:03:35.887Z,99.90
2017-10-17T00:06:04.050Z,99.90
2017-10-17T00:08:31.621Z,99.90
2017-10-17T00:10:59.160Z,99.90
2017-10-17T00:13:26.756Z,99.90
2017-10-17T00:15:54.309Z,99.90
2017-10-17T00:18:21.865Z,99.90
2017-10-17T00:20:50.712Z,99.90
2017-10-17T00:23:19.040Z,99.90
2017-10-17T00:25:46.589Z,99.90
2017-10-17T00:28:14.147Z,99.90
2017-10-17T00:30:41.695Z,99.90
2017-10-17T00:33:12.032Z,99.90
2017-10-17T00:35:54.449Z,99.90
2017-10-17T00:38:22.077Z,99.90
2017-10-17T00:40:50.367Z,99.90
2017-10-17T00:43:17.921Z,99.90
2017-10-17T00:45:45.457Z,99.90
2017-10-17T00:48:19.901Z,99.90
2017-10-17T00:50:49.138Z,99.90
2017-10-17T00:53:17.528Z,99.90
2017-10-17T00:55:45.075Z,99.90
2017-10-17T00:58:12.643Z,99.90
2017-10-17T01:00:40.197Z,99.90
2017-10-17T01:03:07.729Z,99.90
2017-10-17T01:05:36.081Z,99.90
2017-10-17T01:08:03.617Z,99.90
2017-10-17T01:10:31.189Z,99.90
2017-10-17T01:12:58.713Z,99.90
2017-10-17T01:15:26.820Z,99.90
2017-10-17T01:17:54.373Z,99.90
2017-10-17T01:20:28.647Z,99.90
2017-10-17T01:22:56.339Z,99.90
2017-10-17T01:25:24.022Z,99.90
2017-10-17T01:28:08.391Z,99.90
2017-10-17T01:30:37.700Z,99.90
2017-10-17T01:33:06.138Z,99.90
2017-10-17T01:35:33.677Z,99.90
2017-10-17T01:38:01.254Z,99.90
2017-10-17T01:40:28.781Z,99.90
2017-10-17T01:43:01.867Z,99.90
2017-10-17T01:45:35.509Z,99.90
2017-10-17T01:48:08.007Z,99.90
2017-10-17T01:50:41.328Z,99.90
2017-10-17T01:53:19.530Z,99.90
2017-10-17T01:55:47.065Z,99.90
2017-10-17T01:58:15.533Z,99.90
2017-10-17T02:00:43.091Z,99.90
2017-10-17T02:03:11.420Z,99.90
2017-10-17T02:05:39.773Z,99.90
2017-10-17T02:08:08.097Z,99.90
2017-10-17T02:10:35.759Z,99.90
2017-10-17T02:13:03.346Z,99.90
2017-10-17T02:15:30.903Z,99.90
2017-10-17T02:18:01.189Z,99.90
2017-10-17T02:20:29.509Z,99.90
2017-10-17T02:22:57.054Z,99.90
2017-10-17T02:25:27.373Z,99.90
2017-10-17T02:27:54.929Z,99.90
2017-10-17T02:30:34.039Z,99.90
2017-10-17T02:33:03.179Z,99.90
2017-10-17T02:35:32.188Z,99.90
2017-10-17T02:37:59.735Z,99.90
2017-10-17T02:40:27.297Z,99.90
2017-10-17T02:43:11.136Z,99.90
2017-10-17T02:45:38.714Z,99.90
2017-10-17T02:48:06.974Z,99.90
2017-10-17T02:50:34.510Z,99.90
2017-10-17T02:53:02.054Z,99.90
2017-10-17T02:55:30.377Z,99.90
2017-10-17T02:57:57.913Z,99.90
2017-10-17T03:00:26.254Z,99.90
2017-10-17T03:02:53.792Z,99.90
2017-10-17T03:05:22.192Z,99.90
2017-10-17T03:07:52.655Z,99.90
2017-10-17T03:10:20.953Z,99.90
2017-10-17T03:12:48.642Z,99.90
2017-10-17T03:15:20.801Z,99.90
2017-10-17T03:17:48.356Z,99.90
2017-10-17T03:20:15.901Z,99.90
2017-10-17T03:22:43.444Z,99.90
2017-10-17T03:25:17.220Z,99.90
2017-10-17T03:27:46.541Z,99.90
2017-10-17T03:30:14.861Z,99.90
2017-10-17T03:32:42.409Z,99.90
2017-10-17T03:35:14.976Z,99.90
2017-10-17T03:37:49.391Z,99.90
2017-10-17T03:40:17.773Z,99.90
2017-10-17T03:42:48.238Z,99.90
2017-10-17T03:45:16.671Z,99.90
2017-10-17T03:48:00.668Z,99.90
2017-10-17T03:50:32.869Z,99.90
2017-10-17T04:06:38.612Z,99.90
2017-10-17T04:09:06.181Z,99.90
2017-10-17T04:11:34.497Z,99.90
2017-10-17T04:14:20.621Z,99.90
2017-10-17T04:16:54.990Z,99.90
2017-10-17T04:19:29.962Z,99.90
2017-10-17T04:35:18.259Z,99.90
2017-10-17T04:37:47.808Z,99.90
2017-10-17T04:40:31.005Z,99.90
2017-10-17T04:43:11.393Z,99.90
2017-10-17T04:45:45.890Z,99.90
2017-10-17T04:48:32.877Z,99.90
2017-10-17T04:51:16.105Z,99.90
2017-10-17T04:53:55.442Z,99.90
2017-10-17T04:56:24.670Z,99.90
2017-10-17T04:58:54.784Z,99.90
2017-10-17T05:01:23.081Z,99.90
2017-10-17T05:04:02.265Z,99.90
2017-10-17T05:06:30.553Z,99.90
2017-10-17T05:09:01.005Z,99.90
2017-10-17T05:11:30.862Z,99.90
2017-10-17T05:14:14.106Z,99.90
2017-10-17T05:17:03.362Z,99.90
2017-10-17T05:19:49.609Z,99.90
2017-10-17T05:35:40.917Z,99.90
2017-10-17T05:38:08.444Z,99.90
2017-10-17T05:40:35.997Z,99.90
2017-10-17T05:43:03.533Z,99.90
2017-10-17T05:45:31.846Z,99.90
2017-10-17T05:48:10.005Z,99.90
2017-10-17T05:50:39.142Z,99.90
2017-10-17T05:53:06.696Z,99.90
2017-10-17T05:55:34.262Z,99.90
2017-10-17T05:58:01.785Z,99.90
2017-10-17T06:00:29.312Z,99.90
2017-10-17T06:02:56.857Z,99.90
2017-10-17T06:05:24.388Z,99.90
2017-10-17T06:07:51.954Z,99.90
2017-10-17T06:10:19.500Z,99.90
2017-10-17T06:12:47.825Z,99.90
2017-10-17T06:15:15.352Z,99.90
2017-10-17T06:17:42.885Z,99.90
2017-10-17T06:20:10.434Z,99.90
2017-10-17T06:22:37.992Z,99.90
2017-10-17T06:25:05.538Z,99.90
2017-10-17T06:27:33.067Z,99.90
2017-10-17T06:30:01.386Z,99.90
2017-10-17T06:32:28.923Z,99.90
2017-10-17T06:34:56.449Z,99.90
2017-10-17T06:37:24.008Z,99.90
2017-10-17T06:39:51.537Z,99.90
2017-10-17T06:42:19.085Z,99.90
2017-10-17T06:44:46.616Z,99.90
2017-10-17T06:47:14.225Z,99.90
2017-10-17T06:49:42.574Z,99.90
2017-10-17T06:52:10.120Z,99.90
2017-10-17T06:54:37.662Z,99.90
2017-10-17T06:57:05.368Z,99.90
2017-10-17T06:59:33.590Z,99.90
2017-10-17T07:02:01.145Z,99.90
2017-10-17T07:04:28.673Z,99.90
2017-10-17T07:06:56.206Z,99.90
2017-10-17T07:09:23.761Z,99.90
2017-10-17T07:11:51.295Z,99.90
2017-10-17T07:14:18.865Z,99.90
2017-10-17T07:16:46.397Z,99.90
2017-10-17T07:19:13.978Z,99.90
2017-10-17T07:21:41.525Z,99.90
2017-10-17T07:24:09.111Z,99.90
2017-10-17T07:26:36.662Z,99.90
2017-10-17T07:29:04.228Z,99.90
2017-10-17T07:31:31.789Z,99.90
2017-10-17T07:33:59.345Z,99.90
2017-10-17T07:36:26.900Z,99.90
2017-10-17T07:38:54.445Z,99.90
2017-10-17T07:41:22.759Z,99.90
2017-10-17T07:43:50.305Z,99.90
2017-10-17T07:46:17.845Z,99.90
2017-10-17T07:48:45.393Z,99.90
2017-10-17T07:51:13.717Z,99.90
2017-10-17T07:53:41.265Z,99.90
2017-10-17T07:56:08.805Z,99.90
2017-10-17T07:58:37.128Z,90.10
2017-10-17T08:01:04.660Z,90.10
2017-10-17T08:03:32.181Z,85.50
2017-10-17T08:05:59.738Z,81.10
2017-10-17T08:08:27.301Z,75.60
2017-10-17T08:10:55.627Z,71.20
2017-10-17T08:13:23.176Z,71.30
2017-10-17T08:15:50.738Z,66.30
2017-10-17T08:18:18.253Z,66.00
2017-10-17T08:20:45.801Z,66.80
2017-10-17T08:23:13.345Z,60.50
2017-10-17T08:25:40.891Z,61.50
2017-10-17T08:28:08.562Z,57.70
2017-10-17T08:30:36.113Z,55.50
2017-10-17T08:33:03.642Z,54.50
2017-10-17T08:35:31.200Z,57.60
2017-10-17T08:37:59.505Z,52.20
2017-10-17T08:40:27.058Z,52.10
2017-10-17T08:42:54.581Z,51.30
2017-10-17T08:45:22.904Z,46.90
2017-10-17T08:47:50.436Z,46.70
2017-10-17T08:50:18.756Z,48.50
2017-10-17T08:52:46.274Z,48.40
2017-10-17T08:55:13.950Z,47.20
2017-10-17T08:57:41.502Z,46.90
2017-10-17T09:00:09.042Z,49.20
2017-10-17T09:02:37.366Z,49.10
2017-10-17T09:05:04.925Z,49.00
2017-10-17T09:07:32.465Z,49.50
2017-10-17T09:09:59.997Z,49.10
2017-10-17T09:12:28.314Z,49.20
2017-10-17T09:14:55.846Z,49.20
2017-10-17T09:17:24.161Z,49.30
2017-10-17T09:19:51.717Z,49.30
2017-10-17T09:22:19.261Z,48.30
2017-10-17T09:24:46.808Z,49.30
2017-10-17T09:27:14.337Z,46.80
2017-10-17T09:29:43.385Z,46.90
2017-10-17T09:32:10.913Z,47.00
2017-10-17T09:34:39.237Z,47.70
2017-10-17T09:37:06.788Z,47.70
2017-10-17T09:39:34.317Z,46.50
2017-10-17T09:42:01.874Z,46.00
2017-10-17T09:44:29.433Z,45.80
2017-10-17T09:46:57.744Z,45.70
2017-10-17T09:49:25.276Z,45.70
2017-10-17T09:51:52.825Z,45.30
2017-10-17T09:54:21.117Z,42.30
2017-10-17T09:56:48.665Z,42.20
2017-10-17T09:59:16.961Z,43.10
2017-10-17T10:01:44.498Z,43.00
2017-10-17T10:04:12.081Z,40.40
2017-10-17T10:06:39.632Z,40.20
2017-10-17T10:09:07.176Z,38.80
2017-10-17T10:11:35.474Z,39.50
2017-10-17T10:14:03.025Z,39.50
2017-10-17T10:16:30.557Z,36.20
2017-10-17T10:18:58.101Z,33.10
2017-10-17T10:21:27.136Z,35.10
2017-10-17T10:23:55.452Z,35.90
2017-10-17T10:26:22.978Z,35.90
2017-10-17T10:28:50.513Z,33.60
2017-10-17T10:31:18.841Z,33.70
2017-10-17T10:33:46.406Z,33.60
2017-10-17T10:36:13.951Z,32.30
2017-10-17T10:38:41.494Z,34.40
2017-10-17T10:41:09.020Z,34.50
2017-10-17T10:43:36.573Z,32.30
2017-10-17T10:46:05.615Z,34.10
2017-10-17T10:48:33.141Z,34.00
2017-10-17T10:51:01.466Z,30.90
2017-10-17T10:53:28.997Z,30.80
2017-10-17T10:55:57.306Z,33.50
2017-10-17T10:58:24.841Z,33.40
2017-10-17T11:00:52.400Z,29.50
2017-10-17T11:03:19.966Z,31.40
2017-10-17T11:05:47.493Z,31.30
2017-10-17T11:08:15.817Z,32.60
2017-10-17T11:10:43.363Z,32.20
2017-10-17T11:13:10.884Z,33.50
2017-10-17T11:15:38.449Z,33.10
2017-10-17T11:18:05.969Z,32.30
2017-10-17T11:20:33.537Z,33.30
2017-10-17T11:23:01.070Z,36.20
2017-10-17T11:25:28.615Z,36.00
2017-10-17T11:27:56.150Z,37.40
2017-10-17T11:30:24.477Z,37.40
2017-10-17T11:32:52.006Z,37.30
2017-10-17T11:35:20.336Z,37.50
2017-10-17T11:37:47.866Z,37.40
2017-10-17T11:40:15.397Z,40.40
2017-10-17T11:56:15.548Z,37.00
2017-10-17T11:58:43.124Z,38.00
2017-10-17T12:01:10.645Z,37.80
2017-10-17T12:03:38.173Z,37.70
2017-10-17T12:06:06.491Z,39.80
2017-10-17T12:08:34.031Z,40.30
2017-10-17T12:11:02.343Z,39.20
2017-10-17T12:13:29.886Z,39.20
2017-10-17T12:15:57.439Z,37.90
2017-10-17T12:18:24.965Z,38.70
2017-10-17T12:20:52.501Z,39.50
2017-10-17T12:23:20.041Z,38.20
2017-10-17T12:25:47.592Z,39.60
2017-10-17T12:28:15.115Z,40.00
2017-10-17T12:30:43.422Z,38.30
2017-10-17T12:33:10.969Z,38.30
2017-10-17T12:35:38.501Z,39.00
2017-10-17T12:38:06.806Z,39.80
2017-10-17T12:40:34.332Z,39.10
2017-10-17T12:43:02.410Z,38.10
2017-10-17T12:45:29.949Z,37.70
2017-10-17T12:47:58.273Z,39.20
2017-10-17T12:50:25.823Z,39.10
2017-10-17T12:52:53.378Z,39.30
2017-10-17T12:55:20.937Z,38.10
2017-10-17T12:57:48.465Z,38.30
2017-10-17T13:00:16.782Z,38.60
2017-10-17T13:02:44.318Z,38.60
2017-10-17T13:05:11.864Z,38.00
2017-10-17T13:07:40.170Z,37.60
2017-10-17T13:10:07.729Z,37.50
2017-10-17T13:12:35.258Z,37.90
2017-10-17T13:15:03.527Z,38.40
2017-10-17T13:17:31.080Z,37.20
2017-10-17T13:19:58.610Z,37.40
2017-10-17T13:22:26.156Z,37.60
2017-10-17T13:24:53.725Z,37.00
2017-10-17T13:27:21.272Z,38.30
2017-10-17T13:29:49.576Z,38.00
2017-10-17T13:32:17.918Z,36.00
2017-10-17T13:34:45.471Z,36.00
2017-10-17T13:37:13.035Z,35.90
2017-10-17T13:39:40.582Z,37.90
2017-10-17T13:42:08.122Z,38.70
2017-10-17T13:44:35.666Z,37.10
2017-10-17T13:47:07.936Z,36.60
2017-10-17T13:49:36.265Z,35.80
2017-10-17T13:52:04.167Z,35.80
2017-10-17T13:54:31.730Z,38.40
2017-10-17T13:56:59.309Z,38.50
2017-10-17T13:59:27.223Z,38.10
2017-10-17T14:01:54.789Z,37.10
2017-10-17T14:04:22.321Z,38.20
2017-10-17T14:06:50.738Z,37.70
2017-10-17T14:09:18.290Z,37.70
2017-10-17T14:11:45.878Z,36.50
2017-10-17T14:14:13.421Z,36.60
2017-10-17T14:16:40.962Z,38.30
2017-10-17T14:19:09.301Z,37.40
2017-10-17T14:21:36.831Z,37.30
2017-10-17T14:24:04.356Z,38.00
2017-10-17T14:26:31.901Z,37.20
2017-10-17T14:29:00.218Z,39.30
2017-10-17T14:31:27.752Z,39.20
2017-10-17T14:33:56.066Z,37.90
2017-10-17T14:36:23.624Z,37.80
2017-10-17T14:38:51.153Z,39.10
2017-10-17T14:41:18.687Z,38.50
2017-10-17T14:43:46.247Z,41.10
2017-10-17T14:46:14.532Z,44.60
2017-10-17T14:48:42.093Z,44.50
2017-10-17T14:51:10.390Z,47.20
2017-10-17T14:53:37.963Z,47.10
2017-10-17T14:56:05.491Z,48.20
2017-10-17T14:58:33.821Z,49.80
2017-10-17T15:01:01.391Z,49.70
2017-10-17T15:03:28.988Z,50.50
2017-10-17T15:05:56.521Z,51.00
2017-10-17T15:08:24.073Z,51.70
2017-10-17T15:10:51.601Z,51.90
2017-10-17T15:13:19.164Z,52.30
2017-10-17T15:15:46.878Z,52.50
2017-10-17T15:18:14.432Z,52.80
2017-10-17T15:20:41.981Z,53.10
2017-10-17T15:23:09.522Z,54.00
2017-10-17T15:25:37.835Z,56.30
2017-10-17T15:28:05.357Z,55.80
2017-10-17T15:30:32.909Z,55.50
2017-10-17T15:33:00.445Z,55.60
2017-10-17T15:35:27.985Z,55.60
2017-10-17T15:37:55.526Z,55.80
2017-10-17T15:40:23.106Z,56.60
2017-10-17T15:42:50.651Z,56.80
2017-10-17T15:45:18.173Z,58.00
2017-10-17T15:47:45.714Z,59.00
2017-10-17T15:50:13.247Z,58.70
2017-10-17T15:52:40.807Z,59.40
2017-10-17T15:55:08.337Z,59.60
2017-10-17T15:57:36.669Z,60.90
2017-10-17T16:00:04.209Z,60.80
2017-10-17T16:02:31.737Z,61.20
2017-10-17T16:04:59.304Z,62.10
2017-10-17T16:07:26.842Z,63.90
2017-10-17T16:09:55.170Z,66.30
2017-10-17T16:12:22.701Z,65.40
2017-10-17T16:14:50.251Z,66.60
2017-10-17T16:17:17.785Z,67.50
2017-10-17T16:19:45.339Z,69.10
2017-10-17T16:22:12.868Z,71.00
2017-10-17T16:24:40.402Z,73.60
2017-10-17T16:27:07.971Z,79.50
2017-10-17T16:29:35.521Z,91.60
2017-10-17T16:32:03.069Z,97.80
2017-10-17T16:34:30.596Z,99.90
2017-10-17T16:36:58.153Z,99.90
2017-10-17T16:39:25.695Z,99.90
2017-10-17T16:41:53.244Z,99.90
2017-10-17T16:44:20.769Z,99.90
2017-10-17T16:46:48.600Z,99.90
2017-10-17T16:49:16.930Z,99.90
2017-10-17T16:51:44.508Z,99.90
2017-10-17T16:54:12.041Z,99.90
2017-10-17T16:56:39.576Z,99.90
2017-10-17T16:59:07.896Z,99.90
2017-10-17T17:01:35.447Z,99.90
2017-10-17T17:04:02.998Z,99.90
2017-10-17T17:06:30.553Z,99.90
2017-10-17T17:08:58.127Z,99.90
2017-10-17T17:11:25.680Z,99.90
2017-10-17T17:13:53.233Z,99.90
2017-10-17T17:16:20.760Z,99.90
2017-10-17T17:18:49.101Z,99.90
2017-10-17T17:21:16.639Z,99.90
2017-10-17T17:23:44.182Z,99.90
2017-10-17T17:26:13.159Z,99.90
2017-10-17T17:28:41.918Z,99.90
2017-10-17T17:31:09.447Z,99.90
2017-10-17T17:33:36.988Z,99.90
2017-10-17T17:36:04.546Z,99.90
2017-10-17T17:38:32.090Z,99.90
2017-10-17T17:41:00.438Z,99.90
2017-10-17T17:43:27.974Z,99.90
2017-10-17T17:45:55.548Z,99.90
2017-10-17T17:48:23.085Z,99.90
2017-10-17T17:50:50.647Z,99.90
2017-10-17T17:53:18.201Z,99.90
2017-10-17T17:55:45.746Z,99.90
2017-10-17T17:58:13.301Z,99.90
2017-10-17T18:00:40.841Z,99.90
2017-10-17T18:03:09.171Z,99.90
2017-10-17T18:05:36.705Z,99.90
2017-10-17T18:08:04.270Z,99.90
2017-10-17T18:10:31.802Z,99.90
2017-10-17T18:13:00.104Z,99.90
2017-10-17T18:15:27.670Z,99.90
2017-10-17T18:17:55.273Z,99.90
2017-10-17T18:20:23.096Z,99.90
2017-10-17T18:22:50.637Z,99.90
2017-10-17T18:25:18.205Z,99.90
2017-10-17T18:27:45.737Z,99.90
2017-10-17T18:30:14.057Z,99.90
2017-10-17T18:32:41.594Z,99.90
2017-10-17T18:35:09.154Z,99.90
2017-10-17T18:37:36.726Z,99.90
2017-10-17T18:40:04.329Z,99.90
2017-10-17T18:42:31.889Z,99.90
2017-10-17T18:44:59.455Z,99.90
2017-10-17T18:47:27.050Z,99.90
2017-10-17T18:49:54.598Z,99.90
2017-10-17T18:52:22.186Z,99.90
2017-10-17T18:54:49.721Z,99.90
2017-10-17T18:57:17.306Z,99.90
2017-10-17T18:59:44.850Z,99.90
2017-10-17T19:02:12.397Z,99.90
2017-10-17T19:04:39.963Z,99.90
2017-10-17T19:07:07.510Z,99.90
2017-10-17T19:09:35.854Z,99.90
2017-10-17T19:12:04.161Z,99.90
2017-10-17T19:14:31.724Z,99.90
2017-10-17T19:16:59.276Z,99.90
2017-10-17T19:19:26.871Z,99.90
2017-10-17T19:21:54.453Z,99.90
2017-10-17T19:24:22.038Z,99.90
2017-10-17T19:26:50.357Z,99.90
2017-10-17T19:29:17.907Z,99.90
2017-10-17T19:31:45.465Z,99.90
2017-10-17T19:34:13.038Z,99.90
2017-10-17T19:36:40.620Z,99.90
2017-10-17T19:39:08.170Z,99.90
2017-10-17T19:41:35.736Z,99.90
2017-10-17T19:44:04.036Z,99.90
2017-10-17T19:46:31.606Z,99.90
2017-10-17T19:48:59.169Z,99.90
2017-10-17T19:51:26.726Z,99.90
2017-10-17T19:53:54.304Z,99.90
2017-10-17T19:56:22.649Z,99.90
2017-10-17T19:58:50.204Z,99.90
2017-10-17T20:01:18.532Z,99.90
2017-10-17T20:03:46.874Z,99.90
2017-10-17T20:06:14.445Z,99.90
2017-10-17T20:08:42.758Z,99.90
2017-10-17T20:11:10.352Z,99.90
2017-10-17T20:13:37.910Z,99.90
2017-10-17T20:16:06.254Z,99.90
2017-10-17T20:18:33.799Z,99.90
2017-10-17T20:21:01.400Z,99.90
2017-10-17T20:23:28.968Z,99.90
2017-10-17T20:25:56.535Z,99.90
2017-10-17T20:28:24.234Z,99.90
2017-10-17T20:30:52.540Z,99.90
2017-10-17T20:33:20.133Z,99.90
2017-10-17T20:35:47.686Z,99.90
2017-10-17T20:38:15.238Z,99.90
2017-10-17T20:40:43.541Z,99.90
2017-10-17T20:43:11.082Z,99.90
2017-10-17T20:45:39.518Z,99.90
2017-10-17T20:48:07.057Z,99.90
2017-10-17T20:50:34.634Z,99.90
2017-10-17T20:53:02.191Z,99.90
2017-10-17T20:55:29.779Z,99.90
2017-10-17T20:57:57.323Z,99.90
2017-10-17T21:00:24.901Z,99.90
2017-10-17T21:02:52.464Z,99.90
2017-10-17T21:05:20.015Z,99.90
2017-10-17T21:07:47.576Z,99.90
2017-10-17T21:10:15.120Z,99.90
2017-10-17T21:12:42.675Z,99.90
2017-10-17T21:15:10.217Z,99.90
2017-10-17T21:17:37.772Z,99.90
2017-10-17T21:20:05.309Z,99.90
2017-10-17T21:22:32.897Z,99.90
2017-10-17T21:25:00.421Z,99.90
2017-10-17T21:27:28.006Z,99.90
2017-10-17T21:29:55.570Z,99.90
2017-10-17T21:32:23.124Z,99.90
2017-10-17T21:34:50.684Z,99.90
2017-10-17T21:37:18.225Z,99.90
2017-10-17T21:39:45.789Z,99.90
2017-10-17T21:42:13.346Z,99.90
2017-10-17T21:44:40.904Z,99.90
2017-10-17T21:47:08.482Z,99.90
2017-10-17T21:49:36.048Z,99.90
2017-10-17T21:52:03.573Z,99.90
2017-10-17T21:54:31.130Z,99.90
2017-10-17T21:56:58.653Z,99.90
2017-10-17T21:59:26.205Z,99.90
2017-10-17T22:01:53.737Z,99.90
2017-10-17T22:04:21.287Z,99.90
2017-10-17T22:06:48.841Z,99.90
2017-10-17T22:09:16.406Z,99.90
2017-10-17T22:11:43.959Z,99.90
2017-10-17T22:14:11.488Z,99.90
2017-10-17T22:16:39.063Z,99.90
2017-10-17T22:19:06.600Z,99.90
2017-10-17T22:21:34.286Z,99.90
2017-10-17T22:24:01.846Z,99.90
2017-10-17T22:26:29.403Z,99.90
2017-10-17T22:28:56.970Z,99.90
2017-10-17T22:31:24.525Z,99.90
2017-10-17T22:33:52.081Z,99.90
2017-10-17T22:36:19.625Z,99.90
2017-10-17T22:38:47.157Z,99.90
2017-10-17T22:41:15.477Z,99.90
2017-10-17T22:43:43.018Z,99.90
2017-10-17T22:46:10.621Z,99.90
2017-10-17T22:48:38.154Z,99.90
2017-10-17T22:51:05.709Z,99.90
2017-10-17T22:53:33.253Z,99.90
2017-10-17T22:56:00.813Z,99.90
2017-10-17T22:58:28.354Z,99.90
2017-10-17T23:00:56.687Z,99.90
2017-10-17T23:03:24.243Z,99.90
2017-10-17T23:05:51.777Z,99.90
2017-10-17T23:08:19.407Z,99.90
2017-10-17T23:10:46.948Z,99.90
2017-10-17T23:13:14.518Z,99.90
2017-10-17T23:15:42.069Z,99.90
2017-10-17T23:18:21.674Z,99.90
2017-10-17T23:20:49.233Z,99.90
2017-10-17T23:23:16.756Z,99.90
2017-10-17T23:25:44.409Z,99.90
2017-10-17T23:28:12.712Z,99.90
2017-10-17T23:30:40.265Z,99.90
2017-10-17T23:33:07.797Z,99.90
2017-10-17T23:35:35.353Z,99.90
2017-10-17T23:38:03.663Z,99.90
2017-10-17T23:40:31.231Z,99.90
2017-10-17T23:42:58.770Z,99.90
2017-10-17T23:45:26.306Z,99.90
2017-10-17T23:47:53.857Z,99.90
2017-10-17T23:50:22.156Z,99.90
2017-10-17T23:52:49.732Z,99.90
2017-10-17T23:55:17.278Z,99.90
2017-10-17T23:57:44.844Z,99.90
